sensor_id;sensor_type;location;lat;lon;timestamp;P1;durP1;ratioP1;P2;durP2;ratioP2
7919;SDS011;18778;47.610;9.776;2023-04-02T00:01:02;1.20;;;1.20;;
7919;SDS011;18778;47.610;9.776;2023-04-02T00:06:26;1.50;;;1.50;;
7919;SDS011;18778;47.610;9.776;2023-04-02T00:08:57;1.20;;;1.20;;
7919;SDS011;18778;47.610;9.776;2023-04-02T00:11:36;1.70;;;1.53;;
7919;SDS011;18778;47.610;9.776;2023-04-02T00:14:11;1.90;;;1.80;;
7919;SDS011;18778;47.610;9.776;2023-04-02T00:16:47;1.43;;;1.33;;
7919;SDS011;18778;47.610;9.776;2023-04-02T00:19:59;1.60;;;1.50;;
7919;SDS011;18778;47.610;9.776;2023-04-02T00:22:01;1.63;;;1.53;;
7919;SDS011;18778;47.610;9.776;2023-04-02T00:24:30;1.83;;;1.50;;
7919;SDS011;18778;47.610;9.776;2023-04-02T00:26:56;1.20;;;1.20;;
7919;SDS011;18778;47.610;9.776;2023-04-02T00:29:22;1.53;;;1.40;;
7919;SDS011;18778;47.610;9.776;2023-04-02T00:31:49;1.50;;;1.37;;
7919;SDS011;18778;47.610;9.776;2023-04-02T00:34:18;2.00;;;1.67;;
7919;SDS011;18778;47.610;9.776;2023-04-02T00:36:44;1.33;;;1.33;;
7919;SDS011;18778;47.610;9.776;2023-04-02T00:39:33;1.47;;;1.47;;
7919;SDS011;18778;47.610;9.776;2023-04-02T00:42:02;1.50;;;1.40;;
7919;SDS011;18778;47.610;9.776;2023-04-02T00:44:38;1.60;;;1.50;;
7919;SDS011;18778;47.610;9.776;2023-04-02T00:50:22;1.70;;;1.60;;
7919;SDS011;18778;47.610;9.776;2023-04-02T00:52:47;1.40;;;1.40;;
7919;SDS011;18778;47.610;9.776;2023-04-02T00:55:16;1.70;;;1.60;;
7919;SDS011;18778;47.610;9.776;2023-04-02T00:57:49;1.60;;;1.60;;
7919;SDS011;18778;47.610;9.776;2023-04-02T01:05:41;1.73;;;1.40;;
7919;SDS011;18778;47.610;9.776;2023-04-02T01:08:25;1.50;;;1.40;;
7919;SDS011;18778;47.610;9.776;2023-04-02T01:11:03;1.70;;;1.20;;
7919;SDS011;18778;47.610;9.776;2023-04-02T01:13:45;1.30;;;1.20;;
7919;SDS011;18778;47.610;9.776;2023-04-02T01:19:03;1.70;;;1.10;;
7919;SDS011;18778;47.610;9.776;2023-04-02T01:21:56;1.83;;;1.30;;
7919;SDS011;18778;47.610;9.776;2023-04-02T01:24:33;1.10;;;1.10;;
7919;SDS011;18778;47.610;9.776;2023-04-02T01:27:02;1.60;;;1.10;;
7919;SDS011;18778;47.610;9.776;2023-04-02T01:32:06;1.20;;;1.20;;
7919;SDS011;18778;47.610;9.776;2023-04-02T01:34:35;3.40;;;1.20;;
7919;SDS011;18778;47.610;9.776;2023-04-02T01:39:48;1.10;;;1.10;;
7919;SDS011;18778;47.610;9.776;2023-04-02T01:42:50;1.33;;;1.10;;
7919;SDS011;18778;47.610;9.776;2023-04-02T01:45:22;1.20;;;1.20;;
7919;SDS011;18778;47.610;9.776;2023-04-02T01:47:48;1.77;;;1.10;;
7919;SDS011;18778;47.610;9.776;2023-04-02T01:52:44;1.17;;;1.17;;
7919;SDS011;18778;47.610;9.776;2023-04-02T01:55:12;1.20;;;1.20;;
7919;SDS011;18778;47.610;9.776;2023-04-02T01:57:41;1.07;;;1.07;;
7919;SDS011;18778;47.610;9.776;2023-04-02T02:00:14;1.00;;;1.00;;
7919;SDS011;18778;47.610;9.776;2023-04-02T02:02:41;1.10;;;1.10;;
7919;SDS011;18778;47.610;9.776;2023-04-02T02:05:13;1.10;;;1.10;;
7919;SDS011;18778;47.610;9.776;2023-04-02T02:07:41;1.00;;;1.00;;
7919;SDS011;18778;47.610;9.776;2023-04-02T02:10:18;1.37;;;1.17;;
7919;SDS011;18778;47.610;9.776;2023-04-02T02:12:49;1.00;;;1.00;;
7919;SDS011;18778;47.610;9.776;2023-04-02T02:15:16;1.30;;;1.30;;
7919;SDS011;18778;47.610;9.776;2023-04-02T02:17:44;1.23;;;1.13;;
7919;SDS011;18778;47.610;9.776;2023-04-02T02:20:11;1.20;;;1.13;;
7919;SDS011;18778;47.610;9.776;2023-04-02T02:22:39;1.63;;;1.20;;
7919;SDS011;18778;47.610;9.776;2023-04-02T02:25:15;1.47;;;1.30;;
7919;SDS011;18778;47.610;9.776;2023-04-02T02:27:52;1.87;;;1.10;;
7919;SDS011;18778;47.610;9.776;2023-04-02T02:30:29;1.20;;;1.20;;
7919;SDS011;18778;47.610;9.776;2023-04-02T02:33:01;1.63;;;1.10;;
7919;SDS011;18778;47.610;9.776;2023-04-02T02:35:53;1.20;;;1.10;;
7919;SDS011;18778;47.610;9.776;2023-04-02T02:38:46;1.33;;;1.20;;
7919;SDS011;18778;47.610;9.776;2023-04-02T02:46:30;1.43;;;1.23;;
7919;SDS011;18778;47.610;9.776;2023-04-02T02:48:57;1.30;;;1.30;;
7919;SDS011;18778;47.610;9.776;2023-04-02T02:51:36;1.30;;;1.20;;
7919;SDS011;18778;47.610;9.776;2023-04-02T02:54:06;1.40;;;1.40;;
7919;SDS011;18778;47.610;9.776;2023-04-02T02:56:33;1.30;;;1.30;;
7919;SDS011;18778;47.610;9.776;2023-04-02T02:59:04;1.50;;;1.40;;
7919;SDS011;18778;47.610;9.776;2023-04-02T03:01:32;1.43;;;1.43;;
7919;SDS011;18778;47.610;9.776;2023-04-02T03:03:58;1.50;;;1.40;;
7919;SDS011;18778;47.610;9.776;2023-04-02T03:06:24;1.40;;;1.30;;
7919;SDS011;18778;47.610;9.776;2023-04-02T03:11:33;3.13;;;1.33;;
7919;SDS011;18778;47.610;9.776;2023-04-02T03:14:14;2.37;;;1.67;;
7919;SDS011;18778;47.610;9.776;2023-04-02T03:17:16;1.50;;;1.50;;
7919;SDS011;18778;47.610;9.776;2023-04-02T03:20:35;2.23;;;1.33;;
7919;SDS011;18778;47.610;9.776;2023-04-02T03:22:41;1.33;;;1.33;;
7919;SDS011;18778;47.610;9.776;2023-04-02T03:25:20;1.67;;;1.57;;
7919;SDS011;18778;47.610;9.776;2023-04-02T03:27:50;1.60;;;1.50;;
7919;SDS011;18778;47.610;9.776;2023-04-02T03:32:46;1.63;;;1.33;;
7919;SDS011;18778;47.610;9.776;2023-04-02T03:35:36;1.57;;;1.47;;
7919;SDS011;18778;47.610;9.776;2023-04-02T03:38:19;1.63;;;1.50;;
7919;SDS011;18778;47.610;9.776;2023-04-02T03:41:10;1.33;;;1.30;;
7919;SDS011;18778;47.610;9.776;2023-04-02T03:43:46;1.67;;;1.43;;
7919;SDS011;18778;47.610;9.776;2023-04-02T03:46:30;1.53;;;1.43;;
7919;SDS011;18778;47.610;9.776;2023-04-02T03:48:58;1.47;;;1.47;;
7919;SDS011;18778;47.610;9.776;2023-04-02T03:51:27;1.93;;;1.30;;
7919;SDS011;18778;47.610;9.776;2023-04-02T03:53:58;2.30;;;2.10;;
7919;SDS011;18778;47.610;9.776;2023-04-02T03:59:20;2.00;;;1.80;;
7919;SDS011;18778;47.610;9.776;2023-04-02T04:01:57;1.87;;;1.77;;
7919;SDS011;18778;47.610;9.776;2023-04-02T04:04:37;2.40;;;2.27;;
7919;SDS011;18778;47.610;9.776;2023-04-02T04:07:04;3.17;;;2.87;;
7919;SDS011;18778;47.610;9.776;2023-04-02T04:09:38;2.27;;;2.10;;
7919;SDS011;18778;47.610;9.776;2023-04-02T04:15:16;2.60;;;1.97;;
7919;SDS011;18778;47.610;9.776;2023-04-02T04:23:22;2.43;;;2.13;;
7919;SDS011;18778;47.610;9.776;2023-04-02T04:25:55;2.00;;;1.90;;
7919;SDS011;18778;47.610;9.776;2023-04-02T04:28:32;1.80;;;1.70;;
7919;SDS011;18778;47.610;9.776;2023-04-02T04:31:19;1.60;;;1.50;;
7919;SDS011;18778;47.610;9.776;2023-04-02T04:34:07;1.90;;;1.70;;
7919;SDS011;18778;47.610;9.776;2023-04-02T04:37:02;1.73;;;1.63;;
7919;SDS011;18778;47.610;9.776;2023-04-02T04:39:52;1.57;;;1.53;;
7919;SDS011;18778;47.610;9.776;2023-04-02T04:42:38;1.87;;;1.67;;
7919;SDS011;18778;47.610;9.776;2023-04-02T04:50:49;1.57;;;1.50;;
7919;SDS011;18778;47.610;9.776;2023-04-02T04:53:20;2.10;;;2.00;;
7919;SDS011;18778;47.610;9.776;2023-04-02T04:55:49;2.30;;;1.80;;
7919;SDS011;18778;47.610;9.776;2023-04-02T04:58:24;3.90;;;3.00;;
7919;SDS011;18778;47.610;9.776;2023-04-02T05:03:58;28.97;;;19.17;;
7919;SDS011;18778;47.610;9.776;2023-04-02T05:06:44;30.90;;;19.23;;
7919;SDS011;18778;47.610;9.776;2023-04-02T05:09:16;11.93;;;8.70;;
7919;SDS011;18778;47.610;9.776;2023-04-02T05:11:50;5.63;;;4.63;;
7919;SDS011;18778;47.610;9.776;2023-04-02T05:14:36;6.37;;;4.60;;
7919;SDS011;18778;47.610;9.776;2023-04-02T05:17:30;2.93;;;2.63;;
7919;SDS011;18778;47.610;9.776;2023-04-02T05:25:18;2.00;;;1.90;;
7919;SDS011;18778;47.610;9.776;2023-04-02T05:30:42;2.13;;;2.03;;
7919;SDS011;18778;47.610;9.776;2023-04-02T05:33:23;2.10;;;2.00;;
7919;SDS011;18778;47.610;9.776;2023-04-02T05:35:56;1.90;;;1.80;;
7919;SDS011;18778;47.610;9.776;2023-04-02T05:38:31;2.63;;;2.43;;
7919;SDS011;18778;47.610;9.776;2023-04-02T05:43:44;4.27;;;2.77;;
7919;SDS011;18778;47.610;9.776;2023-04-02T05:46:16;2.40;;;2.30;;
7919;SDS011;18778;47.610;9.776;2023-04-02T05:48:47;2.30;;;2.13;;
7919;SDS011;18778;47.610;9.776;2023-04-02T05:51:17;2.53;;;2.10;;
7919;SDS011;18778;47.610;9.776;2023-04-02T05:53:50;2.27;;;2.13;;
7919;SDS011;18778;47.610;9.776;2023-04-02T05:56:27;2.50;;;2.30;;
7919;SDS011;18778;47.610;9.776;2023-04-02T05:59:10;2.50;;;2.20;;
7919;SDS011;18778;47.610;9.776;2023-04-02T06:04:33;3.50;;;3.20;;
7919;SDS011;18778;47.610;9.776;2023-04-02T06:12:21;5.40;;;3.00;;
7919;SDS011;18778;47.610;9.776;2023-04-02T06:14:56;2.90;;;2.70;;
7919;SDS011;18778;47.610;9.776;2023-04-02T06:17:22;2.97;;;2.73;;
7919;SDS011;18778;47.610;9.776;2023-04-02T06:19:49;2.43;;;2.23;;
7919;SDS011;18778;47.610;9.776;2023-04-02T06:22:35;2.30;;;2.20;;
7919;SDS011;18778;47.610;9.776;2023-04-02T06:27:51;2.90;;;2.50;;
7919;SDS011;18778;47.610;9.776;2023-04-02T06:30:24;2.30;;;2.20;;
7919;SDS011;18778;47.610;9.776;2023-04-02T06:32:54;2.30;;;2.20;;
7919;SDS011;18778;47.610;9.776;2023-04-02T06:35:20;2.60;;;2.30;;
7919;SDS011;18778;47.610;9.776;2023-04-02T06:37:47;3.27;;;2.43;;
7919;SDS011;18778;47.610;9.776;2023-04-02T06:45:57;7.20;;;5.20;;
7919;SDS011;18778;47.610;9.776;2023-04-02T06:48:25;3.73;;;3.43;;
7919;SDS011;18778;47.610;9.776;2023-04-02T06:50:57;5.73;;;5.23;;
7919;SDS011;18778;47.610;9.776;2023-04-02T06:53:35;3.97;;;2.70;;
7919;SDS011;18778;47.610;9.776;2023-04-02T06:56:11;4.10;;;2.60;;
7919;SDS011;18778;47.610;9.776;2023-04-02T06:58:47;4.80;;;3.40;;
7919;SDS011;18778;47.610;9.776;2023-04-02T07:01:17;3.00;;;2.67;;
7919;SDS011;18778;47.610;9.776;2023-04-02T07:03:47;2.87;;;2.67;;
7919;SDS011;18778;47.610;9.776;2023-04-02T07:06:14;2.43;;;2.23;;
7919;SDS011;18778;47.610;9.776;2023-04-02T07:08:41;4.97;;;4.60;;
7919;SDS011;18778;47.610;9.776;2023-04-02T07:11:08;2.57;;;2.37;;
7919;SDS011;18778;47.610;9.776;2023-04-02T07:13:41;2.80;;;2.00;;
7919;SDS011;18778;47.610;9.776;2023-04-02T07:16:24;1.80;;;1.70;;
7919;SDS011;18778;47.610;9.776;2023-04-02T07:18:51;2.03;;;1.83;;
7919;SDS011;18778;47.610;9.776;2023-04-02T07:21:17;2.37;;;2.10;;
7919;SDS011;18778;47.610;9.776;2023-04-02T07:23:43;2.77;;;2.20;;
7919;SDS011;18778;47.610;9.776;2023-04-02T07:26:12;1.57;;;1.47;;
7919;SDS011;18778;47.610;9.776;2023-04-02T07:28:40;1.30;;;1.20;;
7919;SDS011;18778;47.610;9.776;2023-04-02T07:34:02;1.40;;;1.40;;
7919;SDS011;18778;47.610;9.776;2023-04-02T07:36:30;1.20;;;1.17;;
7919;SDS011;18778;47.610;9.776;2023-04-02T07:38:55;2.20;;;1.97;;
7919;SDS011;18778;47.610;9.776;2023-04-02T07:41:21;1.67;;;1.30;;
7919;SDS011;18778;47.610;9.776;2023-04-02T07:43:47;1.83;;;1.53;;
7919;SDS011;18778;47.610;9.776;2023-04-02T07:46:13;3.43;;;1.87;;
7919;SDS011;18778;47.610;9.776;2023-04-02T07:48:40;1.50;;;1.40;;
7919;SDS011;18778;47.610;9.776;2023-04-02T07:51:23;1.43;;;1.37;;
7919;SDS011;18778;47.610;9.776;2023-04-02T07:53:50;2.10;;;1.83;;
7919;SDS011;18778;47.610;9.776;2023-04-02T07:56:20;1.43;;;1.30;;
7919;SDS011;18778;47.610;9.776;2023-04-02T07:58:47;1.20;;;1.20;;
7919;SDS011;18778;47.610;9.776;2023-04-02T08:01:14;1.33;;;1.33;;
7919;SDS011;18778;47.610;9.776;2023-04-02T08:03:45;1.00;;;1.00;;
7919;SDS011;18778;47.610;9.776;2023-04-02T08:06:11;1.33;;;1.33;;
7919;SDS011;18778;47.610;9.776;2023-04-02T08:08:37;1.40;;;1.40;;
7919;SDS011;18778;47.610;9.776;2023-04-02T08:11:03;1.43;;;1.43;;
7919;SDS011;18778;47.610;9.776;2023-04-02T08:13:29;1.20;;;1.20;;
7919;SDS011;18778;47.610;9.776;2023-04-02T08:15:57;1.77;;;1.40;;
7919;SDS011;18778;47.610;9.776;2023-04-02T08:18:23;1.30;;;1.27;;
7919;SDS011;18778;47.610;9.776;2023-04-02T08:20:49;1.37;;;1.27;;
7919;SDS011;18778;47.610;9.776;2023-04-02T08:23:16;1.10;;;1.10;;
7919;SDS011;18778;47.610;9.776;2023-04-02T08:25:42;1.10;;;1.10;;
7919;SDS011;18778;47.610;9.776;2023-04-02T08:28:11;1.27;;;1.23;;
7919;SDS011;18778;47.610;9.776;2023-04-02T08:30:37;1.30;;;1.20;;
7919;SDS011;18778;47.610;9.776;2023-04-02T08:33:02;1.30;;;1.20;;
7919;SDS011;18778;47.610;9.776;2023-04-02T08:35:28;1.17;;;1.13;;
7919;SDS011;18778;47.610;9.776;2023-04-02T08:37:54;1.20;;;1.10;;
7919;SDS011;18778;47.610;9.776;2023-04-02T08:48:58;1.20;;;1.10;;
7919;SDS011;18778;47.610;9.776;2023-04-02T08:51:27;1.37;;;1.27;;
7919;SDS011;18778;47.610;9.776;2023-04-02T08:54:01;1.20;;;1.00;;
7919;SDS011;18778;47.610;9.776;2023-04-02T08:56:46;0.70;;;0.70;;
7919;SDS011;18778;47.610;9.776;2023-04-02T09:01:54;1.50;;;1.40;;
7919;SDS011;18778;47.610;9.776;2023-04-02T09:04:30;1.00;;;1.00;;
7919;SDS011;18778;47.610;9.776;2023-04-02T09:06:58;1.00;;;1.00;;
7919;SDS011;18778;47.610;9.776;2023-04-02T09:09:25;1.07;;;1.03;;
7919;SDS011;18778;47.610;9.776;2023-04-02T09:11:58;1.10;;;1.00;;
7919;SDS011;18778;47.610;9.776;2023-04-02T09:14:41;0.80;;;0.80;;
7919;SDS011;18778;47.610;9.776;2023-04-02T09:17:26;0.90;;;0.90;;
7919;SDS011;18778;47.610;9.776;2023-04-02T09:19:56;1.60;;;0.80;;
7919;SDS011;18778;47.610;9.776;2023-04-02T09:22:41;0.90;;;0.90;;
7919;SDS011;18778;47.610;9.776;2023-04-02T09:25:11;2.67;;;0.87;;
7919;SDS011;18778;47.610;9.776;2023-04-02T09:27:40;1.17;;;1.00;;
7919;SDS011;18778;47.610;9.776;2023-04-02T09:33:09;0.80;;;0.80;;
7919;SDS011;18778;47.610;9.776;2023-04-02T09:35:52;1.20;;;1.20;;
7919;SDS011;18778;47.610;9.776;2023-04-02T09:38:28;1.00;;;1.00;;
7919;SDS011;18778;47.610;9.776;2023-04-02T09:40:58;0.90;;;0.90;;
7919;SDS011;18778;47.610;9.776;2023-04-02T09:43:31;1.00;;;1.00;;
7919;SDS011;18778;47.610;9.776;2023-04-02T09:48:39;1.20;;;1.10;;
7919;SDS011;18778;47.610;9.776;2023-04-02T10:01:34;1.10;;;1.10;;
7919;SDS011;18778;47.610;9.776;2023-04-02T10:04:04;1.10;;;1.10;;
7919;SDS011;18778;47.610;9.776;2023-04-02T10:06:50;1.90;;;1.20;;
7919;SDS011;18778;47.610;9.776;2023-04-02T10:09:19;1.10;;;1.10;;
7919;SDS011;18778;47.610;9.776;2023-04-02T10:11:52;1.10;;;1.10;;
7919;SDS011;18778;47.610;9.776;2023-04-02T10:14:23;1.00;;;1.00;;
7919;SDS011;18778;47.610;9.776;2023-04-02T10:16:57;1.43;;;1.33;;
7919;SDS011;18778;47.610;9.776;2023-04-02T10:19:34;1.03;;;1.00;;
7919;SDS011;18778;47.610;9.776;2023-04-02T10:25:18;0.90;;;0.90;;
7919;SDS011;18778;47.610;9.776;2023-04-02T10:32:56;1.00;;;1.00;;
7919;SDS011;18778;47.610;9.776;2023-04-02T10:38:42;1.33;;;1.23;;
7919;SDS011;18778;47.610;9.776;2023-04-02T10:41:10;1.03;;;0.93;;
7919;SDS011;18778;47.610;9.776;2023-04-02T10:46:26;0.90;;;0.90;;
7919;SDS011;18778;47.610;9.776;2023-04-02T10:49:00;1.20;;;1.13;;
7919;SDS011;18778;47.610;9.776;2023-04-02T10:51:58;1.10;;;0.80;;
7919;SDS011;18778;47.610;9.776;2023-04-02T11:11:33;1.10;;;1.10;;
7919;SDS011;18778;47.610;9.776;2023-04-02T11:16:25;1.30;;;1.30;;
7919;SDS011;18778;47.610;9.776;2023-04-02T11:22:14;0.90;;;0.90;;
7919;SDS011;18778;47.610;9.776;2023-04-02T11:27:03;0.90;;;0.90;;
7919;SDS011;18778;47.610;9.776;2023-04-02T11:29:39;1.30;;;1.30;;
7919;SDS011;18778;47.610;9.776;2023-04-02T11:37:28;0.80;;;0.80;;
7919;SDS011;18778;47.610;9.776;2023-04-02T11:39:55;0.90;;;0.90;;
7919;SDS011;18778;47.610;9.776;2023-04-02T11:42:24;0.90;;;0.90;;
7919;SDS011;18778;47.610;9.776;2023-04-02T11:45:47;1.00;;;0.90;;
7919;SDS011;18778;47.610;9.776;2023-04-02T11:50:43;0.70;;;0.70;;
7919;SDS011;18778;47.610;9.776;2023-04-02T11:55:38;0.90;;;0.90;;
7919;SDS011;18778;47.610;9.776;2023-04-02T12:11:42;1.10;;;1.00;;
7919;SDS011;18778;47.610;9.776;2023-04-02T12:22:30;0.97;;;0.97;;
7919;SDS011;18778;47.610;9.776;2023-04-02T12:27:48;1.40;;;0.90;;
7919;SDS011;18778;47.610;9.776;2023-04-02T12:30:27;1.43;;;1.33;;
7919;SDS011;18778;47.610;9.776;2023-04-02T12:33:20;2.53;;;1.53;;
7919;SDS011;18778;47.610;9.776;2023-04-02T12:35:59;0.93;;;0.83;;
7919;SDS011;18778;47.610;9.776;2023-04-02T12:38:33;0.70;;;0.70;;
7919;SDS011;18778;47.610;9.776;2023-04-02T12:41:03;0.90;;;0.80;;
7919;SDS011;18778;47.610;9.776;2023-04-02T12:43:41;0.60;;;0.60;;
7919;SDS011;18778;47.610;9.776;2023-04-02T12:46:08;1.40;;;0.87;;
7919;SDS011;18778;47.610;9.776;2023-04-02T12:48:34;1.00;;;0.73;;
7919;SDS011;18778;47.610;9.776;2023-04-02T12:51:01;0.90;;;0.90;;
7919;SDS011;18778;47.610;9.776;2023-04-02T12:53:38;0.97;;;0.93;;
7919;SDS011;18778;47.610;9.776;2023-04-02T12:56:07;0.60;;;0.60;;
7919;SDS011;18778;47.610;9.776;2023-04-02T12:59:00;0.70;;;0.70;;
7919;SDS011;18778;47.610;9.776;2023-04-02T13:01:38;0.73;;;0.73;;
7919;SDS011;18778;47.610;9.776;2023-04-02T13:04:21;0.80;;;0.80;;
7919;SDS011;18778;47.610;9.776;2023-04-02T13:06:56;0.70;;;0.70;;
7919;SDS011;18778;47.610;9.776;2023-04-02T13:09:38;2.10;;;0.80;;
7919;SDS011;18778;47.610;9.776;2023-04-02T13:20:37;0.70;;;0.70;;
7919;SDS011;18778;47.610;9.776;2023-04-02T13:25:51;0.70;;;0.70;;
7919;SDS011;18778;47.610;9.776;2023-04-02T13:28:17;0.70;;;0.70;;
7919;SDS011;18778;47.610;9.776;2023-04-02T13:30:43;0.97;;;0.70;;
7919;SDS011;18778;47.610;9.776;2023-04-02T13:33:10;0.80;;;0.80;;
7919;SDS011;18778;47.610;9.776;2023-04-02T13:35:36;0.50;;;0.50;;
7919;SDS011;18778;47.610;9.776;2023-04-02T13:38:02;0.70;;;0.70;;
7919;SDS011;18778;47.610;9.776;2023-04-02T13:40:29;0.60;;;0.60;;
7919;SDS011;18778;47.610;9.776;2023-04-02T13:42:56;0.73;;;0.73;;
7919;SDS011;18778;47.610;9.776;2023-04-02T13:45:25;0.80;;;0.80;;
7919;SDS011;18778;47.610;9.776;2023-04-02T13:48:28;0.67;;;0.67;;
7919;SDS011;18778;47.610;9.776;2023-04-02T13:50:55;1.00;;;1.00;;
7919;SDS011;18778;47.610;9.776;2023-04-02T13:53:28;0.70;;;0.70;;
7919;SDS011;18778;47.610;9.776;2023-04-02T13:55:55;0.77;;;0.77;;
7919;SDS011;18778;47.610;9.776;2023-04-02T13:58:27;0.83;;;0.83;;
7919;SDS011;18778;47.610;9.776;2023-04-02T14:01:08;0.73;;;0.70;;
7919;SDS011;18778;47.610;9.776;2023-04-02T14:03:40;0.90;;;0.90;;
7919;SDS011;18778;47.610;9.776;2023-04-02T14:06:08;0.90;;;0.90;;
7919;SDS011;18778;47.610;9.776;2023-04-02T14:08:45;1.00;;;1.00;;
7919;SDS011;18778;47.610;9.776;2023-04-02T14:16:41;2.37;;;1.40;;
7919;SDS011;18778;47.610;9.776;2023-04-02T14:22:01;1.20;;;1.10;;
7919;SDS011;18778;47.610;9.776;2023-04-02T14:33:45;1.40;;;1.30;;
7919;SDS011;18778;47.610;9.776;2023-04-02T14:36:15;0.93;;;0.93;;
7919;SDS011;18778;47.610;9.776;2023-04-02T14:38:53;0.90;;;0.90;;
7919;SDS011;18778;47.610;9.776;2023-04-02T14:41:28;0.73;;;0.73;;
7919;SDS011;18778;47.610;9.776;2023-04-02T14:44:09;0.90;;;0.90;;
7919;SDS011;18778;47.610;9.776;2023-04-02T14:46:36;1.07;;;0.90;;
7919;SDS011;18778;47.610;9.776;2023-04-02T14:49:04;0.93;;;0.93;;
7919;SDS011;18778;47.610;9.776;2023-04-02T14:51:50;0.70;;;0.70;;
7919;SDS011;18778;47.610;9.776;2023-04-02T14:57:04;1.00;;;1.00;;
7919;SDS011;18778;47.610;9.776;2023-04-02T14:59:36;1.10;;;1.10;;
7919;SDS011;18778;47.610;9.776;2023-04-02T15:02:18;1.40;;;1.30;;
7919;SDS011;18778;47.610;9.776;2023-04-02T15:04:50;0.70;;;0.70;;
7919;SDS011;18778;47.610;9.776;2023-04-02T15:07:21;0.87;;;0.87;;
7919;SDS011;18778;47.610;9.776;2023-04-02T15:10:04;1.40;;;0.70;;
7919;SDS011;18778;47.610;9.776;2023-04-02T15:12:38;0.90;;;0.90;;
7919;SDS011;18778;47.610;9.776;2023-04-02T15:15:13;1.30;;;1.13;;
7919;SDS011;18778;47.610;9.776;2023-04-02T15:17:44;0.90;;;0.83;;
7919;SDS011;18778;47.610;9.776;2023-04-02T15:23:33;1.13;;;1.13;;
7919;SDS011;18778;47.610;9.776;2023-04-02T15:26:15;1.37;;;1.30;;
7919;SDS011;18778;47.610;9.776;2023-04-02T15:31:25;1.67;;;1.50;;
7919;SDS011;18778;47.610;9.776;2023-04-02T15:36:44;2.40;;;2.30;;
7919;SDS011;18778;47.610;9.776;2023-04-02T15:39:22;3.47;;;3.17;;
7919;SDS011;18778;47.610;9.776;2023-04-02T15:44:43;1.40;;;1.40;;
7919;SDS011;18778;47.610;9.776;2023-04-02T15:47:17;1.00;;;1.00;;
7919;SDS011;18778;47.610;9.776;2023-04-02T16:00:23;3.20;;;2.70;;
7919;SDS011;18778;47.610;9.776;2023-04-02T16:10:39;1.03;;;1.03;;
7919;SDS011;18778;47.610;9.776;2023-04-02T16:13:23;2.20;;;1.20;;
7919;SDS011;18778;47.610;9.776;2023-04-02T16:18:29;1.50;;;1.20;;
7919;SDS011;18778;47.610;9.776;2023-04-02T16:21:04;4.07;;;2.60;;
7919;SDS011;18778;47.610;9.776;2023-04-02T16:23:38;3.80;;;2.63;;
7919;SDS011;18778;47.610;9.776;2023-04-02T16:26:22;1.37;;;1.30;;
7919;SDS011;18778;47.610;9.776;2023-04-02T16:47:57;1.37;;;1.27;;
7919;SDS011;18778;47.610;9.776;2023-04-02T16:53:01;3.57;;;2.47;;
7919;SDS011;18778;47.610;9.776;2023-04-02T16:58:30;17.43;;;9.93;;
7919;SDS011;18778;47.610;9.776;2023-04-02T17:01:25;7.70;;;3.47;;
7919;SDS011;18778;47.610;9.776;2023-04-02T17:06:45;6.67;;;5.63;;
7919;SDS011;18778;47.610;9.776;2023-04-02T17:14:44;2.10;;;2.00;;
7919;SDS011;18778;47.610;9.776;2023-04-02T17:17:21;5.57;;;4.60;;
7919;SDS011;18778;47.610;9.776;2023-04-02T17:19:48;4.67;;;3.87;;
7919;SDS011;18778;47.610;9.776;2023-04-02T17:22:16;10.57;;;7.40;;
7919;SDS011;18778;47.610;9.776;2023-04-02T17:24:46;5.77;;;3.97;;
7919;SDS011;18778;47.610;9.776;2023-04-02T17:27:23;6.33;;;4.43;;
7919;SDS011;18778;47.610;9.776;2023-04-02T17:29:55;6.40;;;5.30;;
7919;SDS011;18778;47.610;9.776;2023-04-02T17:32:27;1.10;;;1.10;;
7919;SDS011;18778;47.610;9.776;2023-04-02T17:35:16;2.10;;;1.90;;
7919;SDS011;18778;47.610;9.776;2023-04-02T17:37:50;4.13;;;3.73;;
7919;SDS011;18778;47.610;9.776;2023-04-02T17:40:38;3.73;;;1.83;;
7919;SDS011;18778;47.610;9.776;2023-04-02T17:46:25;1.60;;;1.50;;
7919;SDS011;18778;47.610;9.776;2023-04-02T17:57:21;1.20;;;1.20;;
7919;SDS011;18778;47.610;9.776;2023-04-02T17:59:58;1.53;;;1.53;;
7919;SDS011;18778;47.610;9.776;2023-04-02T18:05:44;2.63;;;2.43;;
7919;SDS011;18778;47.610;9.776;2023-04-02T18:08:34;3.30;;;3.10;;
7919;SDS011;18778;47.610;9.776;2023-04-02T18:13:58;6.57;;;4.50;;
7919;SDS011;18778;47.610;9.776;2023-04-02T18:16:34;5.73;;;3.83;;
7919;SDS011;18778;47.610;9.776;2023-04-02T18:24:23;2.20;;;2.03;;
7919;SDS011;18778;47.610;9.776;2023-04-02T18:27:04;4.73;;;3.00;;
7919;SDS011;18778;47.610;9.776;2023-04-02T18:35:25;2.47;;;2.27;;
7919;SDS011;18778;47.610;9.776;2023-04-02T18:43:47;2.73;;;2.53;;
7919;SDS011;18778;47.610;9.776;2023-04-02T18:46:38;2.60;;;2.40;;
7919;SDS011;18778;47.610;9.776;2023-04-02T18:51:59;2.03;;;1.93;;
7919;SDS011;18778;47.610;9.776;2023-04-02T18:54:31;2.03;;;1.93;;
7919;SDS011;18778;47.610;9.776;2023-04-02T18:57:16;6.73;;;5.47;;
7919;SDS011;18778;47.610;9.776;2023-04-02T19:00:46;4.57;;;4.17;;
7919;SDS011;18778;47.610;9.776;2023-04-02T19:02:56;2.47;;;2.37;;
7919;SDS011;18778;47.610;9.776;2023-04-02T19:08:01;2.10;;;2.00;;
7919;SDS011;18778;47.610;9.776;2023-04-02T19:10:42;1.87;;;1.77;;
7919;SDS011;18778;47.610;9.776;2023-04-02T19:13:13;1.47;;;1.47;;
7919;SDS011;18778;47.610;9.776;2023-04-02T19:27:02;1.40;;;1.40;;
7919;SDS011;18778;47.610;9.776;2023-04-02T19:32:27;1.20;;;1.20;;
7919;SDS011;18778;47.610;9.776;2023-04-02T19:35:14;1.00;;;1.00;;
7919;SDS011;18778;47.610;9.776;2023-04-02T19:37:49;1.10;;;1.10;;
7919;SDS011;18778;47.610;9.776;2023-04-02T19:43:05;1.13;;;1.13;;
7919;SDS011;18778;47.610;9.776;2023-04-02T19:45:37;1.63;;;1.30;;
7919;SDS011;18778;47.610;9.776;2023-04-02T19:48:12;1.30;;;1.30;;
7919;SDS011;18778;47.610;9.776;2023-04-02T19:50:58;1.47;;;1.40;;
7919;SDS011;18778;47.610;9.776;2023-04-02T19:53:24;1.50;;;1.50;;
7919;SDS011;18778;47.610;9.776;2023-04-02T19:55:50;1.47;;;1.40;;
7919;SDS011;18778;47.610;9.776;2023-04-02T19:58:26;1.73;;;1.60;;
7919;SDS011;18778;47.610;9.776;2023-04-02T20:00:53;2.40;;;1.60;;
7919;SDS011;18778;47.610;9.776;2023-04-02T20:03:20;2.40;;;2.30;;
7919;SDS011;18778;47.610;9.776;2023-04-02T20:05:46;2.10;;;2.00;;
7919;SDS011;18778;47.610;9.776;2023-04-02T20:08:11;2.33;;;2.10;;
7919;SDS011;18778;47.610;9.776;2023-04-02T20:10:37;2.40;;;2.27;;
7919;SDS011;18778;47.610;9.776;2023-04-02T20:13:03;3.10;;;2.90;;
7919;SDS011;18778;47.610;9.776;2023-04-02T20:15:28;2.50;;;2.30;;
7919;SDS011;18778;47.610;9.776;2023-04-02T20:17:54;3.73;;;3.20;;
7919;SDS011;18778;47.610;9.776;2023-04-02T20:20:20;3.37;;;3.13;;
7919;SDS011;18778;47.610;9.776;2023-04-02T20:22:46;4.10;;;3.80;;
7919;SDS011;18778;47.610;9.776;2023-04-02T20:25:12;4.20;;;3.77;;
7919;SDS011;18778;47.610;9.776;2023-04-02T20:27:38;4.60;;;4.20;;
7919;SDS011;18778;47.610;9.776;2023-04-02T20:30:04;4.43;;;4.07;;
7919;SDS011;18778;47.610;9.776;2023-04-02T20:32:30;4.60;;;4.20;;
7919;SDS011;18778;47.610;9.776;2023-04-02T20:34:56;4.87;;;4.47;;
7919;SDS011;18778;47.610;9.776;2023-04-02T20:37:22;5.07;;;4.47;;
7919;SDS011;18778;47.610;9.776;2023-04-02T20:39:47;6.60;;;5.17;;
7919;SDS011;18778;47.610;9.776;2023-04-02T20:42:13;5.33;;;4.83;;
7919;SDS011;18778;47.610;9.776;2023-04-02T20:44:39;5.80;;;5.20;;
7919;SDS011;18778;47.610;9.776;2023-04-02T20:47:05;6.03;;;5.43;;
7919;SDS011;18778;47.610;9.776;2023-04-02T20:49:32;5.97;;;5.37;;
7919;SDS011;18778;47.610;9.776;2023-04-02T20:51:58;5.60;;;4.80;;
7919;SDS011;18778;47.610;9.776;2023-04-02T20:54:24;6.27;;;5.53;;
7919;SDS011;18778;47.610;9.776;2023-04-02T20:56:50;6.27;;;5.67;;
7919;SDS011;18778;47.610;9.776;2023-04-02T20:59:16;7.50;;;6.70;;
7919;SDS011;18778;47.610;9.776;2023-04-02T21:01:41;6.90;;;6.30;;
7919;SDS011;18778;47.610;9.776;2023-04-02T21:04:07;7.00;;;6.30;;
7919;SDS011;18778;47.610;9.776;2023-04-02T21:06:34;6.73;;;6.13;;
7919;SDS011;18778;47.610;9.776;2023-04-02T21:09:02;6.67;;;6.07;;
7919;SDS011;18778;47.610;9.776;2023-04-02T21:11:28;5.83;;;5.33;;
7919;SDS011;18778;47.610;9.776;2023-04-02T21:13:54;6.07;;;5.47;;